createdAt,value
2023-05-21T00:02:17.518Z,101012.16
2023-05-21T00:04:44.904Z,101003.63
2023-05-21T00:07:11.652Z,100997.59
2023-05-21T00:09:38.592Z,101002.53
2023-05-21T00:12:06.519Z,101006.59
2023-05-21T00:14:33.370Z,101003.66
2023-05-21T00:16:59.844Z,101007.72
2023-05-21T00:19:27.220Z,101003.28
2023-05-21T00:21:54.760Z,101004.06
2023-05-21T00:24:21.297Z,100996.50
2023-05-21T00:26:47.825Z,100996.84
2023-05-21T00:29:14.421Z,100996.50
2023-05-21T00:31:41.022Z,101011.59
2023-05-21T00:34:07.575Z,101001.88
2023-05-21T00:36:34.743Z,101003.41
2023-05-21T00:39:02.361Z,101007.31
2023-05-21T00:41:30.177Z,101008.47
2023-05-21T00:44:00.269Z,101008.16
2023-05-21T00:46:28.541Z,101013.25
2023-05-21T00:48:55.117Z,101014.53
2023-05-21T00:51:21.971Z,101014.00
2023-05-21T00:53:51.371Z,101017.13
2023-05-21T00:56:19.550Z,101018.63
2023-05-21T00:58:46.267Z,101014.28
2023-05-21T01:01:14.013Z,101021.19
2023-05-21T01:03:41.070Z,101018.53
2023-05-21T01:06:09.043Z,101017.66
2023-05-21T01:08:38.941Z,101005.69
2023-05-21T01:11:06.906Z,101013.31
2023-05-21T01:13:37.026Z,101019.09
2023-05-21T01:16:06.566Z,101018.63
2023-05-21T01:18:35.230Z,101012.94
2023-05-21T01:21:02.420Z,101010.94
2023-05-21T01:23:29.280Z,101012.94
2023-05-21T01:25:56.068Z,101006.94
2023-05-21T01:28:22.555Z,101003.22
2023-05-21T01:30:49.077Z,101001.75
2023-05-21T01:33:18.902Z,101014.81
2023-05-21T01:35:51.843Z,101010.50
2023-05-21T01:38:48.125Z,101005.25
2023-05-21T01:41:18.352Z,101002.13
2023-05-21T01:43:46.545Z,101004.94
2023-05-21T01:46:16.548Z,100998.63
2023-05-21T01:48:43.962Z,100999.63
2023-05-21T01:51:10.776Z,100997.69
2023-05-21T01:53:40.615Z,101003.06
2023-05-21T01:56:07.770Z,101004.31
2023-05-21T01:58:34.453Z,100995.97
2023-05-21T02:01:00.968Z,100998.69
2023-05-21T02:03:28.535Z,101002.59
2023-05-21T02:05:55.765Z,100991.72
2023-05-21T02:08:23.270Z,100995.59
2023-05-21T02:10:50.261Z,100994.19
2023-05-21T02:13:20.378Z,100992.06
2023-05-21T02:15:47.273Z,100992.25
2023-05-21T02:18:16.634Z,100987.09
2023-05-21T02:20:43.697Z,100992.06
2023-05-21T02:23:10.207Z,100993.41
2023-05-21T02:25:37.103Z,100998.88
2023-05-21T02:28:04.148Z,100995.03
2023-05-21T02:30:30.911Z,100984.53
2023-05-21T02:32:59.106Z,100988.81
2023-05-21T02:35:26.041Z,100982.38
2023-05-21T02:37:52.574Z,100990.53
2023-05-21T02:40:19.178Z,100985.09
2023-05-21T02:42:45.754Z,100978.63
2023-05-21T02:45:12.988Z,100987.91
2023-05-21T02:47:39.705Z,100980.75
2023-05-21T02:50:07.805Z,100986.53
2023-05-21T02:52:34.431Z,100980.38
2023-05-21T02:55:01.227Z,100982.63
2023-05-21T02:57:27.796Z,100975.69
2023-05-21T02:59:54.376Z,100986.88
2023-05-21T03:02:21.027Z,100985.56
2023-05-21T03:04:47.871Z,100985.09
2023-05-21T03:07:15.506Z,100989.63
2023-05-21T03:09:42.577Z,100985.34
2023-05-21T03:12:10.037Z,100978.81
2023-05-21T03:14:36.850Z,100981.13
2023-05-21T03:17:06.123Z,100984.25
2023-05-21T03:19:36.806Z,100967.53
2023-05-21T03:22:04.571Z,100972.56
2023-05-21T03:24:31.767Z,100969.94
2023-05-21T03:26:59.285Z,100970.56
2023-05-21T03:29:25.857Z,100969.13
2023-05-21T03:31:53.923Z,100970.56
2023-05-21T03:34:20.830Z,100963.28
2023-05-21T03:36:47.934Z,100970.56
2023-05-21T03:39:15.071Z,100964.56
2023-05-21T03:41:42.343Z,100969.78
2023-05-21T03:44:09.021Z,100968.22
2023-05-21T03:46:36.062Z,100970.66
2023-05-21T03:49:02.785Z,100960.69
2023-05-21T03:51:30.619Z,100958.75
2023-05-21T03:54:00.274Z,100962.16
2023-05-21T03:56:26.849Z,100968.69
2023-05-21T03:58:53.341Z,100972.81
2023-05-21T04:01:20.010Z,100975.75
2023-05-21T04:03:47.060Z,100962.56
2023-05-21T04:06:13.771Z,100963.16
2023-05-21T04:08:40.266Z,100976.16
2023-05-21T04:11:06.861Z,100975.06
2023-05-21T04:13:33.344Z,100973.63
2023-05-21T04:15:59.986Z,100968.53
2023-05-21T04:18:26.851Z,100973.31
2023-05-21T04:20:53.837Z,100973.03
2023-05-21T04:23:23.546Z,100974.56
2023-05-21T04:25:50.929Z,100969.91
2023-05-21T04:28:21.066Z,100968.66
2023-05-21T04:30:48.033Z,100963.41
2023-05-21T04:33:18.205Z,100959.72
2023-05-21T04:35:47.380Z,100957.53
2023-05-21T04:38:14.232Z,100954.84
2023-05-21T04:40:40.951Z,100951.22
2023-05-21T04:43:08.261Z,100951.88
2023-05-21T04:45:35.211Z,100949.69
2023-05-21T04:48:02.765Z,100952.78
2023-05-21T04:50:31.963Z,100943.97
2023-05-21T04:52:59.633Z,100949.75
2023-05-21T04:55:27.484Z,100950.16
2023-05-21T04:57:54.047Z,100950.16
2023-05-21T05:00:21.444Z,100942.53
2023-05-21T05:02:48.018Z,100951.63
2023-05-21T05:05:14.783Z,100944.50
2023-05-21T05:07:41.633Z,100957.47
2023-05-21T05:10:08.432Z,100954.06
2023-05-21T05:12:35.206Z,100954.59
2023-05-21T05:15:01.951Z,100955.81
2023-05-21T05:17:28.678Z,100957.03
2023-05-21T05:19:55.283Z,100953.63
2023-05-21T05:22:21.819Z,100946.63
2023-05-21T05:24:48.476Z,100946.94
2023-05-21T05:27:15.119Z,100943.66
2023-05-21T05:29:41.710Z,100939.31
2023-05-21T05:32:08.308Z,100942.19
2023-05-21T05:34:34.997Z,100943.69
2023-05-21T05:37:02.910Z,100949.53
2023-05-21T05:39:29.435Z,100943.66
2023-05-21T05:41:56.006Z,100940.78
2023-05-21T05:44:22.528Z,100945.16
2023-05-21T05:46:49.123Z,100931.94
2023-05-21T05:49:15.750Z,100936.84
2023-05-21T05:51:42.465Z,100937.16
2023-05-21T05:54:09.031Z,100936.31
2023-05-21T05:56:35.598Z,100936.50
2023-05-21T05:59:02.132Z,100931.31
2023-05-21T06:01:28.754Z,100938.19
2023-05-21T06:03:55.328Z,100935.66
2023-05-21T06:06:21.949Z,100925.47
2023-05-21T06:08:48.710Z,100929.41
2023-05-21T06:11:19.182Z,100923.81
2023-05-21T06:13:46.221Z,100931.44
2023-05-21T06:16:12.940Z,100926.81
2023-05-21T06:18:39.588Z,100933.59
2023-05-21T06:21:06.473Z,100924.59
2023-05-21T06:23:33.285Z,100940.78
2023-05-21T06:25:59.926Z,100934.22
2023-05-21T06:28:26.656Z,100927.78
2023-05-21T06:30:53.518Z,100927.78
2023-05-21T06:33:20.213Z,100924.28
2023-05-21T06:35:46.956Z,100932.13
2023-05-21T06:38:13.695Z,100924.63
2023-05-21T06:40:40.457Z,100928.03
2023-05-21T06:43:07.328Z,100930.22
2023-05-21T06:45:34.135Z,100931.09
2023-05-21T06:48:00.859Z,100927.66
2023-05-21T06:50:27.762Z,100932.25
2023-05-21T06:52:54.614Z,100921.56
2023-05-21T06:55:21.355Z,100914.28
2023-05-21T06:57:47.935Z,100909.50
2023-05-21T07:00:15.005Z,100913.81
2023-05-21T07:02:41.620Z,100910.88
2023-05-21T07:05:08.871Z,100909.19
2023-05-21T07:07:35.393Z,100915.22
2023-05-21T07:10:01.954Z,100913.19
2023-05-21T07:12:28.488Z,100898.88
2023-05-21T07:14:55.788Z,100918.72
2023-05-21T07:17:23.660Z,100911.38
2023-05-21T07:19:50.347Z,100913.16
2023-05-21T07:22:16.851Z,100913.28
2023-05-21T07:24:43.410Z,100903.22
2023-05-21T07:27:24.849Z,100905.84
2023-05-21T07:29:52.593Z,100907.88
2023-05-21T07:32:19.165Z,100908.25
2023-05-21T07:34:45.743Z,100902.31
2023-05-21T07:37:12.953Z,100905.50
2023-05-21T07:39:39.957Z,100905.31
2023-05-21T07:42:06.498Z,100901.94
2023-05-21T07:44:33.111Z,100897.50
2023-05-21T07:46:59.726Z,100904.97
2023-05-21T07:49:26.287Z,100900.13
2023-05-21T07:51:52.804Z,100895.53
2023-05-21T07:54:19.809Z,100896.50
2023-05-21T07:56:46.658Z,100898.78
2023-05-21T07:59:14.528Z,100888.63
2023-05-21T08:01:41.183Z,100892.75
2023-05-21T08:04:07.936Z,100900.97
2023-05-21T08:06:34.889Z,100889.00
2023-05-21T08:09:06.365Z,100890.19
2023-05-21T08:11:33.355Z,100887.34
2023-05-21T08:14:00.355Z,100893.47
2023-05-21T08:16:27.089Z,100883.09
2023-05-21T08:18:53.905Z,100886.16
2023-05-21T08:21:20.968Z,100887.94
2023-05-21T08:23:47.632Z,100879.16
2023-05-21T08:26:16.528Z,100880.03
2023-05-21T08:28:43.428Z,100880.41
2023-05-21T08:31:10.333Z,100885.06
2023-05-21T08:33:39.878Z,100876.66
2023-05-21T08:36:06.941Z,100870.56
2023-05-21T08:38:36.916Z,100866.41
2023-05-21T08:41:05.236Z,100870.56
2023-05-21T08:43:31.866Z,100876.09
2023-05-21T08:46:00.746Z,100875.91
2023-05-21T08:48:27.358Z,100866.94
2023-05-21T08:50:54.852Z,100874.97
2023-05-21T08:53:28.549Z,100868.97
2023-05-21T08:55:56.328Z,100876.59
2023-05-21T08:58:23.027Z,100870.56
2023-05-21T09:00:49.800Z,100879.13
2023-05-21T09:03:16.685Z,100874.13
2023-05-21T09:05:44.556Z,100872.19
2023-05-21T09:08:15.279Z,100876.53
2023-05-21T09:10:52.070Z,100872.56
2023-05-21T09:13:19.530Z,100885.13
2023-05-21T09:15:47.035Z,100873.50
2023-05-21T09:18:14.430Z,100870.97
2023-05-21T09:20:41.317Z,100862.47
2023-05-21T09:23:16.982Z,100856.63
2023-05-21T09:25:47.759Z,100861.50
2023-05-21T09:28:15.835Z,100867.72
2023-05-21T09:30:52.268Z,100861.13
2023-05-21T09:33:26.288Z,100859.66
2023-05-21T09:35:53.047Z,100850.69
2023-05-21T09:38:22.568Z,100859.41
2023-05-21T09:40:49.347Z,100857.94
2023-05-21T09:43:16.468Z,100850.94
2023-05-21T09:45:53.457Z,100862.53
2023-05-21T09:48:42.107Z,100864.75
2023-05-21T09:51:12.774Z,100861.06
2023-05-21T09:53:48.809Z,100848.75
2023-05-21T09:56:16.972Z,100847.84
2023-05-21T09:58:43.965Z,100851.34
2023-05-21T10:01:11.149Z,100853.53
2023-05-21T10:03:40.070Z,100853.13
2023-05-21T10:06:09.317Z,100856.09
2023-05-21T10:08:37.466Z,100856.81
2023-05-21T10:11:06.003Z,100846.00
2023-05-21T10:13:34.579Z,100839.63
2023-05-21T10:16:03.237Z,100845.69
2023-05-21T10:18:31.068Z,100839.88
2023-05-21T10:20:59.022Z,100841.75
2023-05-21T10:23:26.113Z,100842.69
2023-05-21T10:25:53.069Z,100836.66
2023-05-21T10:28:20.455Z,100838.34
2023-05-21T10:30:47.180Z,100841.63
2023-05-21T10:33:19.238Z,100839.53
2023-05-21T10:35:48.203Z,100830.53
2023-05-21T10:38:15.827Z,100834.94
2023-05-21T10:40:42.381Z,100824.88
2023-05-21T10:43:18.036Z,100831.72
2023-05-21T10:46:20.034Z,100827.81
2023-05-21T10:49:11.719Z,100824.41
2023-05-21T10:51:50.832Z,100822.59
2023-05-21T10:54:36.135Z,100815.09
2023-05-21T10:57:13.329Z,100810.72
2023-05-21T10:59:43.542Z,100815.94
2023-05-21T11:02:11.907Z,100806.09
2023-05-21T11:04:39.994Z,100817.94
2023-05-21T11:07:06.855Z,100813.50
2023-05-21T11:09:33.393Z,100805.00
2023-05-21T11:12:00.866Z,100811.09
2023-05-21T11:14:35.671Z,100810.03
2023-05-21T11:17:03.311Z,100806.09
2023-05-21T11:19:36.133Z,100794.97
2023-05-21T11:22:07.735Z,100795.41
2023-05-21T11:24:37.471Z,100795.88
2023-05-21T11:27:05.053Z,100790.41
2023-05-21T11:29:33.498Z,100784.34
2023-05-21T11:32:05.554Z,100788.75
2023-05-21T11:34:52.383Z,100792.28
2023-05-21T11:37:18.974Z,100789.28
2023-05-21T11:39:45.637Z,100786.50
2023-05-21T11:42:12.442Z,100796.56
2023-05-21T11:44:46.427Z,100785.72
2023-05-21T11:47:21.516Z,100789.22
2023-05-21T11:49:49.445Z,100781.34
2023-05-21T11:52:16.050Z,100779.00
2023-05-21T11:54:46.303Z,100785.56
2023-05-21T11:57:17.244Z,100794.84
2023-05-21T11:59:44.788Z,100785.72
2023-05-21T12:02:16.549Z,100778.72
2023-05-21T12:04:43.341Z,100787.34
2023-05-21T12:07:11.047Z,100787.59
2023-05-21T12:09:49.268Z,100787.94
2023-05-21T12:12:21.460Z,100784.25
2023-05-21T12:14:52.260Z,100778.09
2023-05-21T12:17:23.157Z,100784.94
2023-05-21T12:19:52.136Z,100777.44
2023-05-21T12:22:18.963Z,100779.19
2023-05-21T12:24:46.277Z,100776.66
2023-05-21T12:27:13.513Z,100780.16
2023-05-21T12:29:42.680Z,100785.13
2023-05-21T12:32:13.890Z,100776.28
2023-05-21T12:34:48.789Z,100772.97
2023-05-21T12:37:22.522Z,100774.72
2023-05-21T12:39:50.964Z,100765.97
2023-05-21T12:42:23.758Z,100772.06
2023-05-21T12:44:52.673Z,100765.81
2023-05-21T12:47:19.361Z,100763.19
2023-05-21T12:49:48.211Z,100768.97
2023-05-21T12:52:15.984Z,100760.94
2023-05-21T12:54:45.278Z,100764.44
2023-05-21T12:57:16.140Z,100762.13
2023-05-21T12:59:46.789Z,100768.22
2023-05-21T13:02:23.985Z,100762.50
2023-05-21T13:05:04.642Z,100757.97
2023-05-21T13:07:32.524Z,100762.13
2023-05-21T13:10:00.294Z,100759.75
2023-05-21T13:12:28.141Z,100760.44
2023-05-21T13:14:59.143Z,100755.00
2023-05-21T13:17:27.355Z,100752.22
2023-05-21T13:20:15.278Z,100755.66
2023-05-21T13:22:45.166Z,100747.44
2023-05-21T13:25:12.293Z,100744.34
2023-05-21T13:27:39.555Z,100743.72
2023-05-21T13:30:07.069Z,100738.59
2023-05-21T13:32:34.161Z,100741.75
2023-05-21T13:35:00.959Z,100743.38
2023-05-21T13:37:27.871Z,100744.63
2023-05-21T13:39:54.816Z,100746.81
2023-05-21T13:42:21.557Z,100746.00
2023-05-21T13:44:48.419Z,100742.00
2023-05-21T13:47:15.214Z,100740.94
2023-05-21T13:49:42.364Z,100739.06
2023-05-21T13:52:09.381Z,100745.03
2023-05-21T13:54:36.860Z,100736.13
2023-05-21T13:57:04.308Z,100734.47
2023-05-21T13:59:33.452Z,100739.28
2023-05-21T14:02:00.927Z,100743.06
2023-05-21T14:04:27.734Z,100735.59
2023-05-21T14:06:54.362Z,100737.50
2023-05-21T14:10:18.052Z,100734.72
2023-05-21T14:12:46.023Z,100736.34
2023-05-21T14:15:12.809Z,100730.06
2023-05-21T14:17:40.337Z,100734.50
2023-05-21T14:20:07.773Z,100737.91
2023-05-21T14:22:34.306Z,100738.69
2023-05-21T14:25:01.188Z,100734.28
2023-05-21T14:27:27.731Z,100730.06
2023-05-21T14:29:54.252Z,100729.88
2023-05-21T14:32:21.021Z,100731.06
2023-05-21T14:34:47.573Z,100721.06
2023-05-21T14:37:14.125Z,100720.56
2023-05-21T14:39:40.746Z,100722.03
2023-05-21T14:42:07.242Z,100711.66
2023-05-21T14:44:33.831Z,100718.31
2023-05-21T14:47:00.412Z,100712.50
2023-05-21T14:49:26.924Z,100707.84
2023-05-21T14:51:53.501Z,100708.06
2023-05-21T14:54:20.030Z,100704.53
2023-05-21T14:56:46.671Z,100704.06
2023-05-21T14:59:14.294Z,100706.03
2023-05-21T15:01:40.909Z,100702.94
2023-05-21T15:04:08.133Z,100698.63
2023-05-21T15:06:34.908Z,100697.47
2023-05-21T15:09:01.538Z,100700.50
2023-05-21T15:11:28.176Z,100700.22
2023-05-21T15:13:54.748Z,100700.84
2023-05-21T15:16:21.330Z,100699.84
2023-05-21T15:18:48.042Z,100693.22
2023-05-21T15:21:14.790Z,100694.19
2023-05-21T15:23:42.118Z,100688.44
2023-05-21T15:26:09.233Z,100696.72
2023-05-21T15:28:35.983Z,100692.69
2023-05-21T15:31:02.779Z,100694.72
2023-05-21T15:33:29.553Z,100687.72
2023-05-21T15:35:56.196Z,100687.53
2023-05-21T15:38:22.874Z,100699.75
2023-05-21T15:40:49.488Z,100691.25
2023-05-21T15:43:16.195Z,100685.53
2023-05-21T15:45:42.935Z,100689.47
2023-05-21T15:48:09.876Z,100694.06
2023-05-21T15:50:37.670Z,100689.00
2023-05-21T15:53:04.837Z,100687.13
2023-05-21T15:55:34.701Z,100694.09
2023-05-21T15:58:03.298Z,100698.19
2023-05-21T16:00:29.938Z,100689.25
2023-05-21T16:02:56.738Z,100687.56
2023-05-21T16:05:23.329Z,100692.66
2023-05-21T16:07:50.254Z,100690.22
2023-05-21T16:10:17.001Z,100688.34
2023-05-21T16:12:43.569Z,100694.78
2023-05-21T16:15:10.834Z,100687.94
2023-05-21T16:17:37.547Z,100695.03
2023-05-21T16:20:04.605Z,100685.47
2023-05-21T16:22:31.440Z,100688.34
2023-05-21T16:24:58.121Z,100678.59
2023-05-21T16:27:25.156Z,100680.00
2023-05-21T16:29:51.759Z,100679.50
2023-05-21T16:32:18.483Z,100676.78
2023-05-21T16:34:45.134Z,100683.38
2023-05-21T16:37:11.778Z,100688.34
2023-05-21T16:39:38.454Z,100680.28
2023-05-21T16:42:05.075Z,100682.66
2023-05-21T16:44:32.207Z,100680.50
2023-05-21T16:46:59.432Z,100680.63
2023-05-21T16:49:26.725Z,100681.63
2023-05-21T16:51:53.429Z,100684.41
2023-05-21T16:54:19.997Z,100677.47
2023-05-21T16:56:46.528Z,100681.59
2023-05-21T16:59:13.156Z,100688.38
2023-05-21T17:01:39.790Z,100683.06
2023-05-21T17:04:06.429Z,100687.56
2023-05-21T17:06:34.033Z,100690.81
2023-05-21T17:09:00.537Z,100689.16
2023-05-21T17:11:27.152Z,100694.63
2023-05-21T17:13:53.726Z,100696.16
2023-05-21T17:16:20.417Z,100687.25
2023-05-21T17:18:46.968Z,100685.31
2023-05-21T17:21:13.776Z,100687.41
2023-05-21T17:23:42.766Z,100680.72
2023-05-21T17:26:09.747Z,100691.19
2023-05-21T17:28:36.658Z,100695.69
2023-05-21T17:31:03.364Z,100691.03
2023-05-21T17:33:30.269Z,100695.09
2023-05-21T17:35:57.162Z,100688.94
2023-05-21T17:38:23.787Z,100690.22
2023-05-21T17:40:50.656Z,100689.19
2023-05-21T17:43:17.762Z,100691.72
2023-05-21T17:45:44.492Z,100687.25
2023-05-21T17:48:11.947Z,100687.25
2023-05-21T17:50:38.789Z,100681.16
2023-05-21T17:53:05.349Z,100681.97
2023-05-21T17:55:31.933Z,100681.75
2023-05-21T17:57:58.908Z,100675.19
2023-05-21T18:00:25.809Z,100682.16
2023-05-21T18:02:52.384Z,100681.94
2023-05-21T18:05:18.996Z,100671.81
2023-05-21T18:07:45.884Z,100681.75
2023-05-21T18:10:12.607Z,100688.44
2023-05-21T18:12:39.489Z,100685.03
2023-05-21T18:15:06.711Z,100681.84
2023-05-21T18:17:33.346Z,100678.22
2023-05-21T18:20:00.066Z,100687.97
2023-05-21T18:22:26.748Z,100680.31
2023-05-21T18:24:53.248Z,100680.53
2023-05-21T18:27:19.995Z,100678.81
2023-05-21T18:29:48.966Z,100678.97
2023-05-21T18:32:16.705Z,100693.09
2023-05-21T18:34:44.103Z,100685.91
2023-05-21T18:37:10.949Z,100688.81
2023-05-21T18:39:37.476Z,100693.56
2023-05-21T18:42:12.865Z,100696.44
2023-05-21T18:44:40.775Z,100693.66
2023-05-21T18:47:08.240Z,100689.34
2023-05-21T18:49:36.062Z,100697.72
2023-05-21T18:52:03.887Z,100694.31
2023-05-21T18:54:30.903Z,100692.94
2023-05-21T18:57:00.155Z,100700.03
2023-05-21T18:59:28.167Z,100704.94
2023-05-21T19:01:55.032Z,100704.31
2023-05-21T19:04:21.681Z,100706.31
2023-05-21T19:06:48.442Z,100706.94
2023-05-21T19:09:15.120Z,100710.84
2023-05-21T19:11:41.638Z,100719.84
2023-05-21T19:14:08.236Z,100715.09
2023-05-21T19:16:34.786Z,100709.97
2023-05-21T19:19:02.006Z,100710.75
2023-05-21T19:21:28.671Z,100710.28
2023-05-21T19:23:55.223Z,100717.63
2023-05-21T19:26:22.761Z,100707.34
2023-05-21T19:28:53.285Z,100709.25
2023-05-21T19:31:20.566Z,100716.13
2023-05-21T19:33:47.149Z,100720.06
2023-05-21T19:36:14.266Z,100717.22
2023-05-21T19:38:50.640Z,100719.13
2023-05-21T19:41:18.112Z,100717.88
2023-05-21T19:43:45.228Z,100711.72
2023-05-21T19:46:11.938Z,100721.91
2023-05-21T19:48:39.029Z,100717.56
2023-05-21T19:51:05.708Z,100720.56
2023-05-21T19:53:32.233Z,100715.00
2023-05-21T19:55:58.726Z,100713.59
2023-05-21T19:58:26.917Z,100708.00
2023-05-21T20:00:58.308Z,100706.75
2023-05-21T20:03:26.492Z,100708.69
2023-05-21T20:05:53.380Z,100701.13
2023-05-21T20:08:20.475Z,100712.56
2023-05-21T20:10:49.558Z,100704.16
2023-05-21T20:13:18.102Z,100708.81
2023-05-21T20:15:44.622Z,100705.31
2023-05-21T20:18:12.747Z,100706.91
2023-05-21T20:20:40.789Z,100708.06
2023-05-21T20:23:07.996Z,100710.13
2023-05-21T20:25:34.528Z,100705.47
2023-05-21T20:28:01.500Z,100701.22
2023-05-21T20:30:34.391Z,100706.09
2023-05-21T20:33:02.151Z,100708.31
2023-05-21T20:35:29.147Z,100711.34
2023-05-21T20:37:55.982Z,100710.28
2023-05-21T20:40:22.645Z,100713.22
2023-05-21T20:42:51.863Z,100716.97
2023-05-21T20:45:18.771Z,100713.44
2023-05-21T20:47:45.508Z,100719.28
2023-05-21T20:50:12.192Z,100713.38
2023-05-21T20:52:38.983Z,100711.13
2023-05-21T20:55:06.050Z,100709.75
2023-05-21T20:57:32.618Z,100701.94
2023-05-21T20:59:59.220Z,100713.22
2023-05-21T21:02:25.842Z,100712.72
2023-05-21T21:04:53.782Z,100712.38
2023-05-21T21:07:20.461Z,100710.97
2023-05-21T21:09:48.220Z,100707.94
2023-05-21T21:12:25.878Z,100701.09
2023-05-21T21:14:53.666Z,100699.59
2023-05-21T21:17:20.569Z,100695.69
2023-05-21T21:19:47.300Z,100696.88
2023-05-21T21:22:14.922Z,100697.06
2023-05-21T21:24:41.681Z,100693.50
2023-05-21T21:27:08.457Z,100689.91
2023-05-21T21:29:35.062Z,100691.09
2023-05-21T21:32:01.659Z,100689.25
2023-05-21T21:34:28.422Z,100697.78
2023-05-21T21:36:54.968Z,100683.31
2023-05-21T21:39:21.503Z,100680.56
2023-05-21T21:41:48.014Z,100687.69
2023-05-21T21:44:14.747Z,100683.13
2023-05-21T21:46:41.251Z,100690.28
2023-05-21T21:49:07.843Z,100686.53
2023-05-21T21:51:34.925Z,100677.50
2023-05-21T21:54:01.439Z,100688.41
2023-05-21T21:56:29.382Z,100691.81
2023-05-21T21:58:56.028Z,100688.75
2023-05-21T22:01:22.621Z,100687.22
2023-05-21T22:03:49.396Z,100691.81
2023-05-21T22:06:16.074Z,100681.59
2023-05-21T22:08:42.661Z,100680.25
2023-05-21T22:11:09.214Z,100681.94
2023-05-21T22:13:35.800Z,100685.50
2023-05-21T22:16:02.684Z,100687.41
2023-05-21T22:18:40.095Z,100696.25
2023-05-21T22:21:11.036Z,100689.63
2023-05-21T22:23:38.454Z,100688.25
2023-05-21T22:26:05.254Z,100686.00
2023-05-21T22:28:32.083Z,100691.25
2023-05-21T22:30:59.125Z,100704.00
2023-05-21T22:33:26.640Z,100699.91
2023-05-21T22:35:54.210Z,100700.91
2023-05-21T22:38:20.964Z,100696.97
2023-05-21T22:40:47.550Z,100698.66
2023-05-21T22:43:14.143Z,100695.59
2023-05-21T22:45:40.664Z,100693.72
2023-05-21T22:48:07.554Z,100694.56
2023-05-21T22:50:34.364Z,100695.75
2023-05-21T22:53:00.912Z,100704.88
2023-05-21T22:55:27.447Z,100705.72
2023-05-21T22:57:54.040Z,100691.97
2023-05-21T23:00:20.717Z,100698.59
2023-05-21T23:02:47.677Z,100693.66
2023-05-21T23:05:14.591Z,100690.91
2023-05-21T23:07:41.376Z,100699.22
2023-05-21T23:10:08.856Z,100691.91
2023-05-21T23:12:36.880Z,100689.03
2023-05-21T23:15:04.876Z,100691.22
2023-05-21T23:17:31.668Z,100691.00
2023-05-21T23:19:59.365Z,100685.22
2023-05-21T23:22:26.250Z,100689.59
2023-05-21T23:24:54.181Z,100684.50
2023-05-21T23:27:20.858Z,100686.94
2023-05-21T23:29:47.456Z,100689.97
2023-05-21T23:32:14.027Z,100695.22
2023-05-21T23:34:41.904Z,100688.22
2023-05-21T23:37:08.464Z,100689.38
2023-05-21T23:39:35.038Z,100680.16
2023-05-21T23:42:01.576Z,100679.28
2023-05-21T23:44:28.048Z,100686.97
2023-05-21T23:46:54.588Z,100684.19
2023-05-21T23:49:21.091Z,100679.69
2023-05-21T23:51:50.561Z,100696.00
2023-05-21T23:54:17.489Z,100681.00
2023-05-21T23:56:44.045Z,100680.97
2023-05-21T23:59:10.924Z,100678.25
